sensor_id;sensor_type;location;lat;lon;timestamp;temperature;humidity
75436;DHT22;64014;53.432;14.534;2022-11-20T00:01:27;2.20;80.20
75436;DHT22;64014;53.432;14.534;2022-11-20T00:03:55;2.20;80.10
75436;DHT22;64014;53.432;14.534;2022-11-20T00:06:21;2.20;80.10
75436;DHT22;64014;53.432;14.534;2022-11-20T00:08:48;2.20;80.10
75436;DHT22;64014;53.432;14.534;2022-11-20T00:11:19;2.10;80.10
75436;DHT22;64014;53.432;14.534;2022-11-20T00:13:47;2.10;80.20
75436;DHT22;64014;53.432;14.534;2022-11-20T00:16:15;2.10;80.30
75436;DHT22;64014;53.432;14.534;2022-11-20T00:18:41;2.10;80.30
75436;DHT22;64014;53.432;14.534;2022-11-20T00:21:12;2.10;80.30
75436;DHT22;64014;53.432;14.534;2022-11-20T00:23:38;2.10;80.20
75436;DHT22;64014;53.432;14.534;2022-11-20T00:26:06;2.00;80.40
75436;DHT22;64014;53.432;14.534;2022-11-20T00:28:32;2.00;80.50
75436;DHT22;64014;53.432;14.534;2022-11-20T00:31:14;1.90;80.50
75436;DHT22;64014;53.432;14.534;2022-11-20T00:33:41;1.90;80.60
75436;DHT22;64014;53.432;14.534;2022-11-20T00:36:10;1.90;80.70
75436;DHT22;64014;53.432;14.534;2022-11-20T00:38:36;1.90;80.80
75436;DHT22;64014;53.432;14.534;2022-11-20T00:41:05;1.90;80.70
75436;DHT22;64014;53.432;14.534;2022-11-20T00:43:31;1.80;80.80
75436;DHT22;64014;53.432;14.534;2022-11-20T00:46:04;1.80;80.80
75436;DHT22;64014;53.432;14.534;2022-11-20T00:48:30;1.80;80.90
75436;DHT22;64014;53.432;14.534;2022-11-20T00:50:56;1.80;81.10
75436;DHT22;64014;53.432;14.534;2022-11-20T00:53:23;1.80;81.00
75436;DHT22;64014;53.432;14.534;2022-11-20T00:56:05;1.90;81.10
75436;DHT22;64014;53.432;14.534;2022-11-20T00:58:34;1.90;81.00
75436;DHT22;64014;53.432;14.534;2022-11-20T01:01:07;1.90;80.90
75436;DHT22;64014;53.432;14.534;2022-11-20T01:03:35;1.90;80.70
75436;DHT22;64014;53.432;14.534;2022-11-20T01:06:06;1.80;80.70
75436;DHT22;64014;53.432;14.534;2022-11-20T01:08:34;1.80;80.90
75436;DHT22;64014;53.432;14.534;2022-11-20T01:11:05;1.70;81.10
75436;DHT22;64014;53.432;14.534;2022-11-20T01:13:32;1.70;81.30
75436;DHT22;64014;53.432;14.534;2022-11-20T01:16:14;1.60;81.50
75436;DHT22;64014;53.432;14.534;2022-11-20T01:18:42;1.60;81.60
75436;DHT22;64014;53.432;14.534;2022-11-20T01:21:11;1.60;81.80
75436;DHT22;64014;53.432;14.534;2022-11-20T01:23:39;1.60;81.90
75436;DHT22;64014;53.432;14.534;2022-11-20T01:26:17;1.60;81.90
75436;DHT22;64014;53.432;14.534;2022-11-20T01:28:43;1.60;81.90
75436;DHT22;64014;53.432;14.534;2022-11-20T01:31:18;1.60;82.00
75436;DHT22;64014;53.432;14.534;2022-11-20T01:33:45;1.70;81.90
75436;DHT22;64014;53.432;14.534;2022-11-20T01:36:12;1.70;81.80
75436;DHT22;64014;53.432;14.534;2022-11-20T01:38:38;1.70;81.70
75436;DHT22;64014;53.432;14.534;2022-11-20T01:41:04;1.70;81.70
75436;DHT22;64014;53.432;14.534;2022-11-20T01:43:30;1.70;81.80
75436;DHT22;64014;53.432;14.534;2022-11-20T01:48:38;1.70;81.90
75436;DHT22;64014;53.432;14.534;2022-11-20T01:51:12;1.70;81.80
75436;DHT22;64014;53.432;14.534;2022-11-20T01:53:41;1.70;81.90
75436;DHT22;64014;53.432;14.534;2022-11-20T01:56:09;1.70;82.00
75436;DHT22;64014;53.432;14.534;2022-11-20T01:58:39;1.70;82.00
75436;DHT22;64014;53.432;14.534;2022-11-20T02:01:06;1.70;82.00
75436;DHT22;64014;53.432;14.534;2022-11-20T02:03:32;1.70;82.00
75436;DHT22;64014;53.432;14.534;2022-11-20T02:08:40;1.60;82.20
75436;DHT22;64014;53.432;14.534;2022-11-20T02:11:06;1.60;82.20
75436;DHT22;64014;53.432;14.534;2022-11-20T02:13:33;1.50;82.30
75436;DHT22;64014;53.432;14.534;2022-11-20T02:16:27;1.50;82.50
75436;DHT22;64014;53.432;14.534;2022-11-20T02:18:55;1.50;82.60
75436;DHT22;64014;53.432;14.534;2022-11-20T02:26:40;1.40;82.80
75436;DHT22;64014;53.432;14.534;2022-11-20T02:29:07;1.40;82.90
75436;DHT22;64014;53.432;14.534;2022-11-20T02:31:41;1.40;83.00
75436;DHT22;64014;53.432;14.534;2022-11-20T02:34:08;1.40;83.20
75436;DHT22;64014;53.432;14.534;2022-11-20T02:36:35;1.40;83.20
75436;DHT22;64014;53.432;14.534;2022-11-20T02:39:03;1.40;83.30
75436;DHT22;64014;53.432;14.534;2022-11-20T02:41:36;1.40;83.40
75436;DHT22;64014;53.432;14.534;2022-11-20T02:44:04;1.40;83.50
75436;DHT22;64014;53.432;14.534;2022-11-20T02:46:31;1.30;83.50
75436;DHT22;64014;53.432;14.534;2022-11-20T02:48:57;1.30;83.60
75436;DHT22;64014;53.432;14.534;2022-11-20T02:51:23;1.30;83.60
75436;DHT22;64014;53.432;14.534;2022-11-20T02:53:49;1.40;83.60
75436;DHT22;64014;53.432;14.534;2022-11-20T02:56:15;1.30;83.50
75436;DHT22;64014;53.432;14.534;2022-11-20T02:58:41;1.30;83.60
75436;DHT22;64014;53.432;14.534;2022-11-20T03:01:07;1.30;83.60
75436;DHT22;64014;53.432;14.534;2022-11-20T03:03:33;1.30;83.50
75436;DHT22;64014;53.432;14.534;2022-11-20T03:05:59;1.30;83.60
75436;DHT22;64014;53.432;14.534;2022-11-20T03:08:25;1.20;83.60
75436;DHT22;64014;53.432;14.534;2022-11-20T03:10:52;1.20;83.70
75436;DHT22;64014;53.432;14.534;2022-11-20T03:13:17;1.20;83.80
75436;DHT22;64014;53.432;14.534;2022-11-20T03:15:43;1.20;83.90
75436;DHT22;64014;53.432;14.534;2022-11-20T03:18:09;1.20;83.90
75436;DHT22;64014;53.432;14.534;2022-11-20T03:20:35;1.20;83.90
75436;DHT22;64014;53.432;14.534;2022-11-20T03:23:01;1.20;84.00
75436;DHT22;64014;53.432;14.534;2022-11-20T03:25:27;1.10;84.10
75436;DHT22;64014;53.432;14.534;2022-11-20T03:27:54;1.10;84.20
75436;DHT22;64014;53.432;14.534;2022-11-20T03:30:19;1.10;84.20
75436;DHT22;64014;53.432;14.534;2022-11-20T03:32:45;1.20;84.10
75436;DHT22;64014;53.432;14.534;2022-11-20T03:35:11;1.20;84.10
75436;DHT22;64014;53.432;14.534;2022-11-20T03:37:36;1.10;84.20
75436;DHT22;64014;53.432;14.534;2022-11-20T03:40:03;1.10;84.30
75436;DHT22;64014;53.432;14.534;2022-11-20T03:42:29;1.10;84.30
75436;DHT22;64014;53.432;14.534;2022-11-20T03:45:14;1.20;84.30
75436;DHT22;64014;53.432;14.534;2022-11-20T03:47:41;1.10;84.20
75436;DHT22;64014;53.432;14.534;2022-11-20T03:50:07;1.10;84.20
75436;DHT22;64014;53.432;14.534;2022-11-20T03:52:33;1.00;84.30
75436;DHT22;64014;53.432;14.534;2022-11-20T03:54:59;1.00;84.30
75436;DHT22;64014;53.432;14.534;2022-11-20T03:57:24;0.90;84.50
75436;DHT22;64014;53.432;14.534;2022-11-20T03:59:50;0.80;84.80
75436;DHT22;64014;53.432;14.534;2022-11-20T04:02:16;0.80;85.00
75436;DHT22;64014;53.432;14.534;2022-11-20T04:04:41;0.80;85.10
75436;DHT22;64014;53.432;14.534;2022-11-20T04:07:07;0.80;85.10
75436;DHT22;64014;53.432;14.534;2022-11-20T04:09:33;0.80;85.10
75436;DHT22;64014;53.432;14.534;2022-11-20T04:11:58;0.90;85.00
75436;DHT22;64014;53.432;14.534;2022-11-20T04:14:24;0.90;84.90
75436;DHT22;64014;53.432;14.534;2022-11-20T04:16:50;1.00;84.80
75436;DHT22;64014;53.432;14.534;2022-11-20T04:19:16;1.00;84.60
75436;DHT22;64014;53.432;14.534;2022-11-20T04:21:43;1.00;84.50
75436;DHT22;64014;53.432;14.534;2022-11-20T04:24:09;1.00;84.40
75436;DHT22;64014;53.432;14.534;2022-11-20T04:26:39;1.00;84.40
75436;DHT22;64014;53.432;14.534;2022-11-20T04:29:05;1.00;84.30
75436;DHT22;64014;53.432;14.534;2022-11-20T04:31:33;1.00;84.30
75436;DHT22;64014;53.432;14.534;2022-11-20T04:34:03;1.10;84.10
75436;DHT22;64014;53.432;14.534;2022-11-20T04:36:30;1.10;84.00
75436;DHT22;64014;53.432;14.534;2022-11-20T04:39:01;1.10;83.90
75436;DHT22;64014;53.432;14.534;2022-11-20T04:41:32;1.10;83.90
75436;DHT22;64014;53.432;14.534;2022-11-20T04:44:00;1.10;83.70
75436;DHT22;64014;53.432;14.534;2022-11-20T04:46:30;1.10;83.60
75436;DHT22;64014;53.432;14.534;2022-11-20T04:48:56;1.10;83.50
75436;DHT22;64014;53.432;14.534;2022-11-20T04:51:22;1.10;83.50
75436;DHT22;64014;53.432;14.534;2022-11-20T04:53:48;1.10;83.50
75436;DHT22;64014;53.432;14.534;2022-11-20T04:56:14;1.10;83.50
75436;DHT22;64014;53.432;14.534;2022-11-20T04:58:40;1.10;83.50
75436;DHT22;64014;53.432;14.534;2022-11-20T05:01:11;1.10;83.50
75436;DHT22;64014;53.432;14.534;2022-11-20T05:03:37;1.10;83.60
75436;DHT22;64014;53.432;14.534;2022-11-20T05:06:05;1.10;83.60
75436;DHT22;64014;53.432;14.534;2022-11-20T05:08:32;1.00;83.80
75436;DHT22;64014;53.432;14.534;2022-11-20T05:11:06;1.00;83.90
75436;DHT22;64014;53.432;14.534;2022-11-20T05:13:32;1.10;83.80
75436;DHT22;64014;53.432;14.534;2022-11-20T05:16:05;1.10;83.80
75436;DHT22;64014;53.432;14.534;2022-11-20T05:18:31;1.10;83.80
75436;DHT22;64014;53.432;14.534;2022-11-20T05:20:57;1.10;83.90
75436;DHT22;64014;53.432;14.534;2022-11-20T05:23:24;1.10;84.00
75436;DHT22;64014;53.432;14.534;2022-11-20T05:25:57;1.00;84.10
75436;DHT22;64014;53.432;14.534;2022-11-20T05:28:23;1.10;84.10
75436;DHT22;64014;53.432;14.534;2022-11-20T05:30:49;1.10;84.10
75436;DHT22;64014;53.432;14.534;2022-11-20T05:33:15;1.10;84.20
75436;DHT22;64014;53.432;14.534;2022-11-20T05:35:41;1.10;84.20
75436;DHT22;64014;53.432;14.534;2022-11-20T05:38:07;1.00;84.30
75436;DHT22;64014;53.432;14.534;2022-11-20T05:40:33;1.10;84.30
75436;DHT22;64014;53.432;14.534;2022-11-20T05:42:59;1.10;84.30
75436;DHT22;64014;53.432;14.534;2022-11-20T05:45:25;1.10;84.20
75436;DHT22;64014;53.432;14.534;2022-11-20T05:47:51;1.10;84.00
75436;DHT22;64014;53.432;14.534;2022-11-20T05:50:16;1.10;83.90
75436;DHT22;64014;53.432;14.534;2022-11-20T05:52:42;1.10;84.00
75436;DHT22;64014;53.432;14.534;2022-11-20T05:55:08;1.10;84.00
75436;DHT22;64014;53.432;14.534;2022-11-20T05:57:34;1.10;84.20
75436;DHT22;64014;53.432;14.534;2022-11-20T05:59:59;1.10;84.20
75436;DHT22;64014;53.432;14.534;2022-11-20T06:02:25;1.10;84.20
75436;DHT22;64014;53.432;14.534;2022-11-20T06:04:51;1.10;84.30
75436;DHT22;64014;53.432;14.534;2022-11-20T06:07:16;1.10;84.30
75436;DHT22;64014;53.432;14.534;2022-11-20T06:09:42;1.10;84.30
75436;DHT22;64014;53.432;14.534;2022-11-20T06:12:08;1.00;84.40
75436;DHT22;64014;53.432;14.534;2022-11-20T06:14:34;1.00;84.50
75436;DHT22;64014;53.432;14.534;2022-11-20T06:17:00;1.00;84.60
75436;DHT22;64014;53.432;14.534;2022-11-20T06:19:26;1.00;84.70
75436;DHT22;64014;53.432;14.534;2022-11-20T06:21:51;1.00;84.80
75436;DHT22;64014;53.432;14.534;2022-11-20T06:24:17;1.00;84.90
75436;DHT22;64014;53.432;14.534;2022-11-20T06:26:43;1.00;85.00
75436;DHT22;64014;53.432;14.534;2022-11-20T06:29:09;1.00;85.00
75436;DHT22;64014;53.432;14.534;2022-11-20T06:31:35;1.00;85.10
75436;DHT22;64014;53.432;14.534;2022-11-20T06:34:05;1.00;85.10
75436;DHT22;64014;53.432;14.534;2022-11-20T06:36:31;1.00;85.00
75436;DHT22;64014;53.432;14.534;2022-11-20T06:38:57;1.10;85.00
75436;DHT22;64014;53.432;14.534;2022-11-20T06:41:23;1.10;84.80
75436;DHT22;64014;53.432;14.534;2022-11-20T06:43:49;1.10;84.80
75436;DHT22;64014;53.432;14.534;2022-11-20T06:46:15;1.10;84.90
75436;DHT22;64014;53.432;14.534;2022-11-20T06:48:46;1.10;84.70
75436;DHT22;64014;53.432;14.534;2022-11-20T06:51:12;1.10;84.60
75436;DHT22;64014;53.432;14.534;2022-11-20T06:53:38;1.10;84.60
75436;DHT22;64014;53.432;14.534;2022-11-20T06:56:05;1.10;84.50
75436;DHT22;64014;53.432;14.534;2022-11-20T06:58:32;1.10;84.40
75436;DHT22;64014;53.432;14.534;2022-11-20T07:00:59;1.10;84.30
75436;DHT22;64014;53.432;14.534;2022-11-20T07:03:25;1.20;84.40
75436;DHT22;64014;53.432;14.534;2022-11-20T07:05:51;1.20;84.30
75436;DHT22;64014;53.432;14.534;2022-11-20T07:08:17;1.30;84.10
75436;DHT22;64014;53.432;14.534;2022-11-20T07:10:42;1.30;83.90
75436;DHT22;64014;53.432;14.534;2022-11-20T07:13:08;1.30;83.90
75436;DHT22;64014;53.432;14.534;2022-11-20T07:15:34;1.40;83.70
75436;DHT22;64014;53.432;14.534;2022-11-20T07:17:59;1.40;83.70
75436;DHT22;64014;53.432;14.534;2022-11-20T07:20:25;1.40;83.60
75436;DHT22;64014;53.432;14.534;2022-11-20T07:22:55;1.40;83.50
75436;DHT22;64014;53.432;14.534;2022-11-20T07:25:22;1.30;83.40
75436;DHT22;64014;53.432;14.534;2022-11-20T07:27:48;1.40;83.60
75436;DHT22;64014;53.432;14.534;2022-11-20T07:30:17;1.40;83.60
75436;DHT22;64014;53.432;14.534;2022-11-20T07:32:47;1.40;83.60
75436;DHT22;64014;53.432;14.534;2022-11-20T07:35:13;1.40;83.60
75436;DHT22;64014;53.432;14.534;2022-11-20T07:37:39;1.40;83.60
75436;DHT22;64014;53.432;14.534;2022-11-20T07:40:05;1.40;83.50
75436;DHT22;64014;53.432;14.534;2022-11-20T07:42:30;1.40;83.30
75436;DHT22;64014;53.432;14.534;2022-11-20T07:44:56;1.40;83.30
75436;DHT22;64014;53.432;14.534;2022-11-20T07:47:22;1.40;83.50
75436;DHT22;64014;53.432;14.534;2022-11-20T07:49:47;1.50;83.30
75436;DHT22;64014;53.432;14.534;2022-11-20T07:52:13;1.50;83.20
75436;DHT22;64014;53.432;14.534;2022-11-20T07:54:39;1.50;83.20
75436;DHT22;64014;53.432;14.534;2022-11-20T07:57:04;1.50;83.00
75436;DHT22;64014;53.432;14.534;2022-11-20T07:59:30;1.50;83.00
75436;DHT22;64014;53.432;14.534;2022-11-20T08:01:56;1.50;83.00
75436;DHT22;64014;53.432;14.534;2022-11-20T08:04:21;1.50;83.00
75436;DHT22;64014;53.432;14.534;2022-11-20T08:06:48;1.60;82.80
75436;DHT22;64014;53.432;14.534;2022-11-20T08:09:14;1.60;82.90
75436;DHT22;64014;53.432;14.534;2022-11-20T08:11:40;1.70;82.80
75436;DHT22;64014;53.432;14.534;2022-11-20T08:14:24;1.70;82.40
75436;DHT22;64014;53.432;14.534;2022-11-20T08:16:52;1.70;82.30
75436;DHT22;64014;53.432;14.534;2022-11-20T08:19:18;1.70;82.20
75436;DHT22;64014;53.432;14.534;2022-11-20T08:21:44;1.70;82.10
75436;DHT22;64014;53.432;14.534;2022-11-20T08:24:11;1.70;82.20
75436;DHT22;64014;53.432;14.534;2022-11-20T08:26:38;1.70;82.00
75436;DHT22;64014;53.432;14.534;2022-11-20T08:29:04;1.70;81.90
75436;DHT22;64014;53.432;14.534;2022-11-20T08:31:30;1.70;81.70
75436;DHT22;64014;53.432;14.534;2022-11-20T08:33:56;1.70;81.60
75436;DHT22;64014;53.432;14.534;2022-11-20T08:36:23;1.70;81.80
75436;DHT22;64014;53.432;14.534;2022-11-20T08:38:50;1.60;82.00
75436;DHT22;64014;53.432;14.534;2022-11-20T08:41:16;1.60;82.10
75436;DHT22;64014;53.432;14.534;2022-11-20T08:46:23;1.60;82.10
75436;DHT22;64014;53.432;14.534;2022-11-20T08:48:49;1.60;82.30
75436;DHT22;64014;53.432;14.534;2022-11-20T08:51:16;1.60;82.30
75436;DHT22;64014;53.432;14.534;2022-11-20T08:53:42;1.60;82.00
75436;DHT22;64014;53.432;14.534;2022-11-20T08:56:08;1.70;82.00
75436;DHT22;64014;53.432;14.534;2022-11-20T08:58:35;1.70;81.70
75436;DHT22;64014;53.432;14.534;2022-11-20T09:01:01;1.70;81.80
75436;DHT22;64014;53.432;14.534;2022-11-20T09:03:27;1.80;81.70
75436;DHT22;64014;53.432;14.534;2022-11-20T09:06:04;1.80;81.30
75436;DHT22;64014;53.432;14.534;2022-11-20T09:08:30;1.80;81.10
75436;DHT22;64014;53.432;14.534;2022-11-20T09:10:56;1.80;81.20
75436;DHT22;64014;53.432;14.534;2022-11-20T09:13:23;1.80;81.30
75436;DHT22;64014;53.432;14.534;2022-11-20T09:16:00;1.80;81.30
75436;DHT22;64014;53.432;14.534;2022-11-20T09:18:28;1.80;81.10
75436;DHT22;64014;53.432;14.534;2022-11-20T09:21:01;1.80;81.20
75436;DHT22;64014;53.432;14.534;2022-11-20T09:23:30;1.80;81.10
75436;DHT22;64014;53.432;14.534;2022-11-20T09:25:56;1.90;81.10
75436;DHT22;64014;53.432;14.534;2022-11-20T09:28:25;1.90;81.00
75436;DHT22;64014;53.432;14.534;2022-11-20T09:30:51;1.90;80.90
75436;DHT22;64014;53.432;14.534;2022-11-20T09:33:17;1.90;81.00
75436;DHT22;64014;53.432;14.534;2022-11-20T09:35:44;2.00;80.90
75436;DHT22;64014;53.432;14.534;2022-11-20T09:38:11;2.00;80.70
75436;DHT22;64014;53.432;14.534;2022-11-20T09:40:43;2.00;80.60
75436;DHT22;64014;53.432;14.534;2022-11-20T09:46:23;2.00;80.40
75436;DHT22;64014;53.432;14.534;2022-11-20T09:54:38;2.00;80.10
75436;DHT22;64014;53.432;14.534;2022-11-20T09:57:36;2.00;80.30
75436;DHT22;64014;53.432;14.534;2022-11-20T10:00:04;2.00;80.20
75436;DHT22;64014;53.432;14.534;2022-11-20T10:02:41;2.00;80.20
75436;DHT22;64014;53.432;14.534;2022-11-20T10:08:07;2.00;80.50
75436;DHT22;64014;53.432;14.534;2022-11-20T10:10:47;2.00;80.30
75436;DHT22;64014;53.432;14.534;2022-11-20T10:13:31;2.00;80.30
75436;DHT22;64014;53.432;14.534;2022-11-20T10:16:23;1.90;80.50
75436;DHT22;64014;53.432;14.534;2022-11-20T10:19:28;1.90;80.60
75436;DHT22;64014;53.432;14.534;2022-11-20T10:24:56;1.80;80.70
75436;DHT22;64014;53.432;14.534;2022-11-20T10:27:39;1.90;80.90
75436;DHT22;64014;53.432;14.534;2022-11-20T10:30:10;1.90;80.70
75436;DHT22;64014;53.432;14.534;2022-11-20T10:32:48;1.80;80.80
75436;DHT22;64014;53.432;14.534;2022-11-20T10:35:23;1.80;80.80
75436;DHT22;64014;53.432;14.534;2022-11-20T10:37:58;1.80;81.00
75436;DHT22;64014;53.432;14.534;2022-11-20T10:40:45;1.80;81.10
75436;DHT22;64014;53.432;14.534;2022-11-20T10:43:17;1.80;81.20
75436;DHT22;64014;53.432;14.534;2022-11-20T10:45:58;1.90;80.90
75436;DHT22;64014;53.432;14.534;2022-11-20T10:48:27;1.90;80.80
75436;DHT22;64014;53.432;14.534;2022-11-20T10:51:04;2.00;80.70
75436;DHT22;64014;53.432;14.534;2022-11-20T10:56:59;2.00;80.60
75436;DHT22;64014;53.432;14.534;2022-11-20T11:02:52;1.90;80.70
75436;DHT22;64014;53.432;14.534;2022-11-20T11:05:41;1.80;80.60
75436;DHT22;64014;53.432;14.534;2022-11-20T11:08:12;1.70;81.20
75436;DHT22;64014;53.432;14.534;2022-11-20T11:13:27;1.70;81.60
75436;DHT22;64014;53.432;14.534;2022-11-20T11:15:53;1.70;81.60
75436;DHT22;64014;53.432;14.534;2022-11-20T11:18:25;1.60;81.60
75436;DHT22;64014;53.432;14.534;2022-11-20T11:20:52;1.70;81.20
75436;DHT22;64014;53.432;14.534;2022-11-20T11:23:38;1.70;81.10
75436;DHT22;64014;53.432;14.534;2022-11-20T11:26:07;1.70;81.00
75436;DHT22;64014;53.432;14.534;2022-11-20T11:28:33;1.80;81.10
75436;DHT22;64014;53.432;14.534;2022-11-20T11:30:59;1.80;80.50
75436;DHT22;64014;53.432;14.534;2022-11-20T11:33:27;1.80;80.60
75436;DHT22;64014;53.432;14.534;2022-11-20T11:35:56;1.80;80.50
75436;DHT22;64014;53.432;14.534;2022-11-20T11:38:29;1.70;80.50
75436;DHT22;64014;53.432;14.534;2022-11-20T11:40:57;1.70;80.50
75436;DHT22;64014;53.432;14.534;2022-11-20T11:43:25;1.60;80.90
75436;DHT22;64014;53.432;14.534;2022-11-20T11:46:32;1.60;81.00
75436;DHT22;64014;53.432;14.534;2022-11-20T11:49:00;1.50;81.40
75436;DHT22;64014;53.432;14.534;2022-11-20T11:51:38;1.40;81.50
75436;DHT22;64014;53.432;14.534;2022-11-20T11:54:20;1.40;81.70
75436;DHT22;64014;53.432;14.534;2022-11-20T11:56:47;1.40;81.90
75436;DHT22;64014;53.432;14.534;2022-11-20T11:59:23;1.40;82.00
75436;DHT22;64014;53.432;14.534;2022-11-20T12:01:57;1.40;81.50
75436;DHT22;64014;53.432;14.534;2022-11-20T12:04:36;1.40;81.50
75436;DHT22;64014;53.432;14.534;2022-11-20T12:07:12;1.40;81.60
75436;DHT22;64014;53.432;14.534;2022-11-20T12:09:45;1.40;81.70
75436;DHT22;64014;53.432;14.534;2022-11-20T12:12:20;1.40;81.70
75436;DHT22;64014;53.432;14.534;2022-11-20T12:14:48;1.40;81.70
75436;DHT22;64014;53.432;14.534;2022-11-20T12:17:15;1.50;81.50
75436;DHT22;64014;53.432;14.534;2022-11-20T12:19:41;1.50;81.20
75436;DHT22;64014;53.432;14.534;2022-11-20T12:27:40;1.60;81.10
75436;DHT22;64014;53.432;14.534;2022-11-20T12:30:09;1.60;80.60
75436;DHT22;64014;53.432;14.534;2022-11-20T12:32:43;1.70;80.90
75436;DHT22;64014;53.432;14.534;2022-11-20T12:43:39;1.70;80.80
75436;DHT22;64014;53.432;14.534;2022-11-20T12:46:47;1.70;80.70
75436;DHT22;64014;53.432;14.534;2022-11-20T12:52:40;1.70;80.10
75436;DHT22;64014;53.432;14.534;2022-11-20T13:00:24;1.60;80.50
75436;DHT22;64014;53.432;14.534;2022-11-20T13:03:03;1.50;80.70
75436;DHT22;64014;53.432;14.534;2022-11-20T13:08:34;1.40;81.60
75436;DHT22;64014;53.432;14.534;2022-11-20T13:11:12;1.30;82.00
75436;DHT22;64014;53.432;14.534;2022-11-20T13:13:46;1.30;82.00
75436;DHT22;64014;53.432;14.534;2022-11-20T13:19:12;1.20;82.30
75436;DHT22;64014;53.432;14.534;2022-11-20T13:21:47;1.20;82.40
75436;DHT22;64014;53.432;14.534;2022-11-20T13:29:45;1.20;82.10
75436;DHT22;64014;53.432;14.534;2022-11-20T13:32:14;1.20;82.20
75436;DHT22;64014;53.432;14.534;2022-11-20T13:34:59;1.20;82.20
75436;DHT22;64014;53.432;14.534;2022-11-20T13:37:34;1.20;81.90
75436;DHT22;64014;53.432;14.534;2022-11-20T13:43:02;1.30;81.80
75436;DHT22;64014;53.432;14.534;2022-11-20T13:45:31;1.30;81.90
75436;DHT22;64014;53.432;14.534;2022-11-20T13:48:03;1.40;81.70
75436;DHT22;64014;53.432;14.534;2022-11-20T13:50:58;1.40;81.70
75436;DHT22;64014;53.432;14.534;2022-11-20T13:53:33;1.30;81.90
75436;DHT22;64014;53.432;14.534;2022-11-20T13:56:11;1.20;81.70
75436;DHT22;64014;53.432;14.534;2022-11-20T13:59:26;1.20;82.00
75436;DHT22;64014;53.432;14.534;2022-11-20T14:01:45;1.20;82.40
75436;DHT22;64014;53.432;14.534;2022-11-20T14:04:15;1.20;82.40
75436;DHT22;64014;53.432;14.534;2022-11-20T14:06:45;1.20;82.60
75436;DHT22;64014;53.432;14.534;2022-11-20T14:09:24;1.20;82.40
75436;DHT22;64014;53.432;14.534;2022-11-20T14:11:50;1.20;82.60
75436;DHT22;64014;53.432;14.534;2022-11-20T14:14:19;1.30;82.50
75436;DHT22;64014;53.432;14.534;2022-11-20T14:16:47;1.30;82.20
75436;DHT22;64014;53.432;14.534;2022-11-20T14:19:31;1.30;82.10
75436;DHT22;64014;53.432;14.534;2022-11-20T14:22:22;1.30;82.10
75436;DHT22;64014;53.432;14.534;2022-11-20T14:24:49;1.20;82.00
75436;DHT22;64014;53.432;14.534;2022-11-20T14:27:19;1.10;82.10
75436;DHT22;64014;53.432;14.534;2022-11-20T14:29:48;1.10;82.30
75436;DHT22;64014;53.432;14.534;2022-11-20T14:32:16;1.10;82.50
75436;DHT22;64014;53.432;14.534;2022-11-20T14:34:46;1.00;82.60
75436;DHT22;64014;53.432;14.534;2022-11-20T14:37:19;1.00;82.90
75436;DHT22;64014;53.432;14.534;2022-11-20T14:39:53;1.00;83.10
75436;DHT22;64014;53.432;14.534;2022-11-20T14:42:24;1.00;83.20
75436;DHT22;64014;53.432;14.534;2022-11-20T14:44:51;0.90;83.20
75436;DHT22;64014;53.432;14.534;2022-11-20T14:47:27;0.90;83.40
75436;DHT22;64014;53.432;14.534;2022-11-20T14:49:55;0.90;83.60
75436;DHT22;64014;53.432;14.534;2022-11-20T14:52:24;1.00;83.50
75436;DHT22;64014;53.432;14.534;2022-11-20T14:54:57;1.00;83.50
75436;DHT22;64014;53.432;14.534;2022-11-20T14:57:29;0.90;83.40
75436;DHT22;64014;53.432;14.534;2022-11-20T15:02:41;0.90;83.40
75436;DHT22;64014;53.432;14.534;2022-11-20T15:05:07;1.00;83.40
75436;DHT22;64014;53.432;14.534;2022-11-20T15:07:38;1.00;83.30
75436;DHT22;64014;53.432;14.534;2022-11-20T15:10:23;1.00;83.30
75436;DHT22;64014;53.432;14.534;2022-11-20T15:12:52;1.00;83.20
75436;DHT22;64014;53.432;14.534;2022-11-20T15:18:14;1.00;83.10
75436;DHT22;64014;53.432;14.534;2022-11-20T15:20:41;1.00;83.20
75436;DHT22;64014;53.432;14.534;2022-11-20T15:23:15;1.00;83.20
75436;DHT22;64014;53.432;14.534;2022-11-20T15:25:41;1.00;83.30
75436;DHT22;64014;53.432;14.534;2022-11-20T15:28:20;1.00;83.30
75436;DHT22;64014;53.432;14.534;2022-11-20T15:30:48;1.00;83.40
75436;DHT22;64014;53.432;14.534;2022-11-20T15:33:15;0.90;83.30
75436;DHT22;64014;53.432;14.534;2022-11-20T15:35:41;0.90;83.50
75436;DHT22;64014;53.432;14.534;2022-11-20T15:38:07;1.00;83.60
75436;DHT22;64014;53.432;14.534;2022-11-20T15:40:33;1.00;83.40
75436;DHT22;64014;53.432;14.534;2022-11-20T15:42:58;1.00;83.40
75436;DHT22;64014;53.432;14.534;2022-11-20T15:45:39;1.00;83.30
75436;DHT22;64014;53.432;14.534;2022-11-20T15:48:41;1.00;83.40
75436;DHT22;64014;53.432;14.534;2022-11-20T15:53:36;1.00;83.10
75436;DHT22;64014;53.432;14.534;2022-11-20T15:56:02;1.00;83.10
75436;DHT22;64014;53.432;14.534;2022-11-20T15:58:28;1.00;83.30
75436;DHT22;64014;53.432;14.534;2022-11-20T16:00:54;1.00;83.30
75436;DHT22;64014;53.432;14.534;2022-11-20T16:03:20;0.90;83.20
75436;DHT22;64014;53.432;14.534;2022-11-20T16:05:46;0.90;83.10
75436;DHT22;64014;53.432;14.534;2022-11-20T16:08:12;0.80;83.20
75436;DHT22;64014;53.432;14.534;2022-11-20T16:10:38;0.80;83.30
75436;DHT22;64014;53.432;14.534;2022-11-20T16:13:04;0.80;83.40
75436;DHT22;64014;53.432;14.534;2022-11-20T16:15:57;0.80;83.60
75436;DHT22;64014;53.432;14.534;2022-11-20T16:18:23;0.80;83.70
75436;DHT22;64014;53.432;14.534;2022-11-20T16:20:51;0.80;83.80
75436;DHT22;64014;53.432;14.534;2022-11-20T16:23:17;0.80;83.90
75436;DHT22;64014;53.432;14.534;2022-11-20T16:25:44;0.70;84.00
75436;DHT22;64014;53.432;14.534;2022-11-20T16:28:10;0.70;84.10
75436;DHT22;64014;53.432;14.534;2022-11-20T16:30:37;0.80;84.20
75436;DHT22;64014;53.432;14.534;2022-11-20T16:33:03;0.80;84.20
75436;DHT22;64014;53.432;14.534;2022-11-20T16:35:30;0.80;84.20
75436;DHT22;64014;53.432;14.534;2022-11-20T16:37:57;0.80;84.10
75436;DHT22;64014;53.432;14.534;2022-11-20T16:40:24;0.80;84.10
75436;DHT22;64014;53.432;14.534;2022-11-20T16:42:50;0.80;84.20
75436;DHT22;64014;53.432;14.534;2022-11-20T16:45:16;0.80;84.30
75436;DHT22;64014;53.432;14.534;2022-11-20T16:47:42;0.80;84.10
75436;DHT22;64014;53.432;14.534;2022-11-20T16:50:08;0.80;84.00
75436;DHT22;64014;53.432;14.534;2022-11-20T16:52:34;0.80;84.00
75436;DHT22;64014;53.432;14.534;2022-11-20T16:55:00;0.80;83.90
75436;DHT22;64014;53.432;14.534;2022-11-20T16:57:30;0.80;84.00
75436;DHT22;64014;53.432;14.534;2022-11-20T17:00:00;0.80;83.90
75436;DHT22;64014;53.432;14.534;2022-11-20T17:02:26;0.80;83.90
75436;DHT22;64014;53.432;14.534;2022-11-20T17:04:52;0.80;83.90
75436;DHT22;64014;53.432;14.534;2022-11-20T17:07:18;0.80;84.10